首页
METAR-TAF:

METAR-TAF

机场 :

喀土穆国际机场

喀土穆, 苏丹共和国

纬度: 15-36N, 经度: 032-33E, 海拔: 382米

当前天气观测

该预报发布于15分钟前的22:00 UTC
风速17节,风向
温度 19°C
湿度 18%
气压 1019 hPa
能见度10公里或以上
1500米以下无云,无积雨云

METAR: HSSS 152200Z 35017KT CAVOK 19/M06 Q1019 NOSIG

时间: 01:15 (22:15 UTC)

预报

该预报发布于5小时和15分钟前的17:00 UTC
预报有效从15日的 18点(UTC)到 16日的 24点(UTC)
风速14节,风向,有时为24节阵风
能見度: 6000
短暂存在
从 15日的 18点(UTC)到 15日的 22点(UTC)
能見度: 4000
高吹沙

TAF: HSSS 151700Z 1518/1624 35014G24KT 6000 NSC TEMPO 1518/1522 4000 BLSA

超过4000个机场的气象观测和天气预报(METAR&TAF报告)。

可查询的气象台以黄色和红色小点在地图上表示。

将鼠标移到小点上方,可查看气象台名称。

然后点击查看天气观测和预报。

如需切换地图:点击带黑十字的绿色按钮放大地图;点击带横线的绿色按钮缩小地图;或者点击绿色箭头查看邻近地区的地图。


METAR-TAF: